Time;durP1;ratioP1;P1;durP2;ratioP2;P2;SDS_P1;SDS_P2;PMS_P1;PMS_P2;Temp;Humidity;BMP_temperature;BMP_pressure;BME280_temperature;BME280_humidity;BME280_pressure;Samples;Min_cycle;Max_cycle;Signal;HPM_P1;HPM_P2
2021/07/20 00:00:32;;;;;;;10.43;9.43;;;14.80;8.90;;;;;;5021453;28;20443;-50
2021/07/20 00:02:58;;;;;;;10.10;9.07;;;14.70;13.60;;;;;;5027836;28;20182;-51
2021/07/20 00:05:26;;;;;;;11.47;9.40;;;14.70;17.70;;;;;;5022073;28;20183;-50
2021/07/20 00:07:54;;;;;;;12.63;10.13;;;14.60;19.20;;;;;;5030503;28;20425;-53
2021/07/20 00:10:28;;;;;;;10.00;9.00;;;14.50;25.00;;;;;;5033037;28;20587;-50
2021/07/20 00:12:54;;;;;;;10.50;9.40;;;14.40;28.20;;;;;;5034102;28;20443;-50
2021/07/20 00:15:20;;;;;;;10.67;9.03;;;14.40;32.10;;;;;;5027816;28;20435;-52
2021/07/20 00:17:48;;;;;;;11.40;9.20;;;14.40;30.90;;;;;;5033973;28;20480;-50
2021/07/20 00:20:16;;;;;;;15.23;9.50;;;14.30;36.00;;;;;;5034041;28;20440;-51
2021/07/20 00:22:42;;;;;;;12.00;9.27;;;14.40;33.80;;;;;;5032660;28;20459;-50
2021/07/20 00:25:09;;;;;;;10.13;8.93;;;14.30;36.20;;;;;;5033953;28;20503;-51
2021/07/20 00:27:35;;;;;;;12.07;8.70;;;14.30;45.80;;;;;;5032560;28;21403;-54
2021/07/20 00:30:01;;;;;;;9.97;8.80;;;14.30;47.80;;;;;;5033136;28;20454;-55
2021/07/20 00:32:27;;;;;;;12.60;9.93;;;14.30;48.40;;;;;;5026822;28;20182;-51
2021/07/20 00:34:52;;;;;;;10.40;9.23;;;14.30;48.20;;;;;;5021961;28;21299;-50
2021/07/20 00:37:18;;;;;;;13.03;10.70;;;14.20;53.30;;;;;;5033097;28;20442;-53
2021/07/20 00:39:43;;;;;;;12.30;9.40;;;14.30;55.90;;;;;;5021807;28;20193;-52
2021/07/20 00:42:09;;;;;;;10.47;9.10;;;14.30;59.90;;;;;;5026562;28;20196;-53
2021/07/20 00:44:35;;;;;;;11.83;9.80;;;14.20;62.50;;;;;;5031949;28;21008;-53
2021/07/20 00:47:00;;;;;;;14.70;9.90;;;14.30;66.90;;;;;;5032243;28;20188;-52
2021/07/20 00:49:26;;;;;;;11.40;10.20;;;14.30;69.20;;;;;;5034813;28;20217;-50
2021/07/20 00:51:51;;;;;;;11.83;10.00;;;14.30;71.20;;;;;;5030764;28;20229;-55
2021/07/20 00:54:17;;;;;;;11.93;9.90;;;14.30;71.80;;;;;;5031896;28;20536;-52
2021/07/20 00:56:43;;;;;;;12.70;8.93;;;14.30;75.30;;;;;;5033484;28;20178;-52
2021/07/20 00:59:11;;;;;;;12.00;9.20;;;14.40;73.70;;;;;;5025455;28;20583;-49
2021/07/20 01:01:36;;;;;;;10.90;9.50;;;14.40;74.00;;;;;;5033256;28;20413;-50
2021/07/20 01:04:02;;;;;;;12.40;10.17;;;14.40;80.60;;;;;;5026375;28;20418;-53
2021/07/20 01:06:29;;;;;;;11.70;10.00;;;14.40;78.30;;;;;;5030959;28;20207;-50
2021/07/20 01:08:55;;;;;;;11.03;9.80;;;14.40;78.50;;;;;;5025809;28;20469;-53
2021/07/20 01:11:22;;;;;;;10.63;9.53;;;14.40;82.70;;;;;;5030982;28;20779;-50
2021/07/20 01:13:49;;;;;;;12.03;10.20;;;14.50;67.00;;;;;;5029015;28;20464;-49
2021/07/20 01:16:15;;;;;;;13.63;10.47;;;14.50;65.50;;;;;;5029661;28;20434;-53
2021/07/20 01:18:42;;;;;;;11.77;10.30;;;14.50;71.40;;;;;;5030841;28;20463;-49
2021/07/20 01:21:09;;;;;;;11.90;10.20;;;14.40;77.20;;;;;;5029287;28;20443;-53
2021/07/20 01:23:45;;;;;;;11.60;8.82;;;14.30;81.30;;;;;;5030771;28;20802;-51
2021/07/20 01:26:12;;;;;;;12.10;10.00;;;14.40;74.50;;;;;;5018405;28;20184;-56
2021/07/20 01:28:40;;;;;;;11.90;9.53;;;14.30;68.90;;;;;;5030912;28;20460;-52
2021/07/20 01:31:09;;;;;;;12.87;9.20;;;14.30;71.00;;;;;;5027490;28;20437;-52
2021/07/20 01:33:38;;;;;;;11.43;9.97;;;14.30;74.70;;;;;;5018381;28;20425;-51
2021/07/20 01:36:06;;;;;;;15.03;9.60;;;14.30;67.40;;;;;;5026514;28;21235;-57
2021/07/20 01:38:33;;;;;;;10.93;8.90;;;14.40;66.10;;;;;;5029444;28;20531;-51
2021/07/20 01:41:06;;;;;;;9.37;8.37;;;14.40;64.90;;;;;;5030345;28;20420;-53
2021/07/20 01:43:32;;;;;;;9.87;8.87;;;14.30;63.80;;;;;;5026299;28;20473;-53
2021/07/20 01:45:59;;;;;;;12.47;9.60;;;14.40;65.10;;;;;;5029020;28;20925;-52
2021/07/20 01:48:28;;;;;;;10.30;8.77;;;14.40;65.20;;;;;;5029449;28;20470;-50
2021/07/20 01:50:55;;;;;;;10.10;8.30;;;14.40;67.40;;;;;;5041229;28;20420;-52
2021/07/20 01:53:21;;;;;;;10.50;9.23;;;14.50;66.50;;;;;;5028808;28;20441;-51
2021/07/20 01:55:48;;;;;;;10.50;8.93;;;14.50;67.40;;;;;;5030173;28;20179;-52
2021/07/20 01:58:13;;;;;;;11.55;9.23;;;14.50;62.80;;;;;;5030583;28;20454;-53
2021/07/20 02:00:40;;;;;;;12.47;9.40;;;14.60;63.50;;;;;;5026424;28;20210;-52
2021/07/20 02:03:28;;;;;;;12.70;9.33;;;14.60;60.60;;;;;;5030408;28;20500;-51
2021/07/20 02:08:44;;;;;;;10.87;9.17;;;14.60;62.40;;;;;;5027772;28;20460;-50
2021/07/20 02:11:19;;;;;;;10.03;8.50;;;14.60;61.20;;;;;;5027488;28;20449;-49
2021/07/20 02:13:52;;;;;;;9.93;8.90;;;14.60;57.30;;;;;;5030526;28;21156;-52
2021/07/20 02:16:22;;;;;;;12.27;9.30;;;14.60;58.80;;;;;;5029939;28;20506;-54
2021/07/20 02:18:52;;;;;;;11.33;9.07;;;14.70;59.90;;;;;;5022857;28;20445;-53
2021/07/20 02:21:20;;;;;;;10.60;9.50;;;14.60;58.30;;;;;;5029437;28;20432;-53
2021/07/20 02:23:49;;;;;;;10.33;9.20;;;14.60;56.40;;;;;;5029047;28;20513;-51
2021/07/20 02:26:16;;;;;;;14.23;8.93;;;14.60;59.00;;;;;;5028886;28;20808;-51
2021/07/20 02:28:42;;;;;;;11.60;9.80;;;14.60;54.00;;;;;;5022581;28;20954;-54
2021/07/20 02:31:09;;;;;;;10.43;9.33;;;14.60;42.60;;;;;;5029091;28;20452;-52
2021/07/20 02:33:37;;;;;;;11.50;8.87;;;14.60;44.30;;;;;;5028045;28;21124;-51
2021/07/20 02:36:04;;;;;;;9.50;8.50;;;14.70;47.10;;;;;;5029007;28;20441;-51
2021/07/20 02:38:31;;;;;;;10.63;9.40;;;14.70;45.70;;;;;;5022819;28;20532;-49
2021/07/20 02:40:58;;;;;;;11.43;9.60;;;14.60;49.40;;;;;;5028949;28;20799;-54
2021/07/20 02:43:26;;;;;;;13.37;9.53;;;14.70;48.80;;;;;;5017461;28;20527;-51
2021/07/20 02:45:52;;;;;;;10.53;9.33;;;14.70;46.10;;;;;;5026714;28;20432;-55
2021/07/20 02:48:22;;;;;;;9.37;8.37;;;14.70;43.00;;;;;;5027981;28;20492;-54
2021/07/20 02:50:48;;;;;;;9.97;8.10;;;14.70;41.60;;;;;;5037749;28;20433;-55
2021/07/20 02:53:15;;;;;;;11.90;10.50;;;14.80;37.30;;;;;;5029512;28;20416;-51
2021/07/20 02:55:41;;;;;;;10.43;9.27;;;14.80;37.80;;;;;;5027631;28;20447;-49
2021/07/20 02:58:07;;;;;;;11.10;9.33;;;14.70;39.00;;;;;;5029685;28;20425;-54
2021/07/20 03:00:33;;;;;;;11.53;9.37;;;14.70;39.70;;;;;;5010873;28;20436;-51
2021/07/20 03:02:59;;;;;;;10.77;9.03;;;14.70;40.50;;;;;;5029441;28;21063;-52
2021/07/20 03:05:24;;;;;;;12.77;9.10;;;14.60;43.40;;;;;;5018344;28;20430;-52
2021/07/20 03:07:58;;;;;;;11.27;9.17;;;14.60;42.80;;;;;;5026978;28;20186;-54
2021/07/20 03:10:29;;;;;;;12.00;9.10;;;14.60;37.80;;;;;;5028429;28;20177;-52
2021/07/20 03:12:58;;;;;;;12.40;9.13;;;14.70;34.70;;;;;;5028376;28;20447;-49
2021/07/20 03:15:25;;;;;;;10.60;9.20;;;14.70;37.30;;;;;;5025058;28;20456;-50
2021/07/20 03:17:53;;;;;;;9.70;8.70;;;14.70;38.80;;;;;;5028241;28;21022;-52
2021/07/20 03:20:20;;;;;;;10.38;8.77;;;14.60;40.70;;;;;;5027576;28;20433;-55
2021/07/20 03:22:48;;;;;;;11.30;9.13;;;14.60;45.10;;;;;;5029160;28;20553;-52
2021/07/20 03:25:14;;;;;;;11.50;8.60;;;14.60;45.70;;;;;;5021858;28;20878;-54
2021/07/20 03:27:42;;;;;;;10.47;8.83;;;14.70;45.60;;;;;;5025945;28;20511;-54
2021/07/20 03:30:10;;;;;;;11.30;9.73;;;14.70;44.20;;;;;;5023500;28;20430;-51
2021/07/20 03:32:37;;;;;;;10.00;8.83;;;14.70;41.70;;;;;;5025721;28;20918;-52
2021/07/20 03:35:05;;;;;;;10.50;9.30;;;14.70;42.30;;;;;;5021958;28;20436;-52
2021/07/20 03:37:31;;;;;;;10.93;8.93;;;14.70;43.20;;;;;;5029048;28;20966;-49
2021/07/20 03:39:58;;;;;;;11.30;8.90;;;14.70;41.40;;;;;;5027964;28;20459;-51
2021/07/20 03:42:25;;;;;;;11.40;9.00;;;14.70;41.50;;;;;;5023893;28;20444;-52
2021/07/20 03:44:52;;;;;;;9.90;8.60;;;14.70;36.70;;;;;;5031453;28;20424;-52
2021/07/20 03:47:18;;;;;;;10.77;9.17;;;14.70;38.40;;;;;;5032983;28;20437;-53
2021/07/20 03:49:45;;;;;;;13.63;8.77;;;14.80;33.80;;;;;;5036571;28;20464;-51
2021/07/20 03:52:13;;;;;;;10.23;8.60;;;14.80;30.60;;;;;;5038888;28;20500;-52
2021/07/20 03:54:39;;;;;;;10.00;9.07;;;14.80;30.00;;;;;;5030907;28;20436;-50
2021/07/20 03:57:06;;;;;;;10.20;9.10;;;14.90;33.00;;;;;;5031688;28;20440;-52
2021/07/20 03:59:33;;;;;;;10.47;8.60;;;14.90;31.60;;;;;;5027136;28;20518;-52
2021/07/20 04:02:01;;;;;;;11.63;8.40;;;14.90;28.90;;;;;;5024701;28;20421;-50
2021/07/20 04:04:34;;;;;;;9.40;8.50;;;14.90;28.00;;;;;;5031805;28;20437;-51
2021/07/20 04:07:01;;;;;;;10.30;9.03;;;15.00;31.80;;;;;;5032819;28;20594;-52
2021/07/20 04:09:27;;;;;;;9.83;8.53;;;15.00;30.30;;;;;;5032226;28;20555;-49
2021/07/20 04:11:53;;;;;;;14.60;9.83;;;15.10;29.30;;;;;;5031590;28;20422;-51
2021/07/20 04:14:19;;;;;;;10.33;9.23;;;15.10;28.80;;;;;;5024094;28;20767;-50
2021/07/20 04:16:46;;;;;;;10.00;8.80;;;15.10;26.30;;;;;;5031024;28;20469;-48
2021/07/20 04:19:16;;;;;;;9.90;8.90;;;15.20;24.90;;;;;;5009639;28;20760;-51
2021/07/20 04:21:43;;;;;;;10.00;8.68;;;15.30;23.00;;;;;;5008482;28;20429;-50
2021/07/20 04:24:10;;;;;;;10.30;8.27;;;15.30;21.60;;;;;;5012061;28;20738;-49
2021/07/20 04:26:37;;;;;;;10.27;8.70;;;15.40;21.90;;;;;;5009898;28;20798;-53
2021/07/20 04:29:04;;;;;;;9.97;8.97;;;15.40;21.80;;;;;;5009770;28;20485;-52
2021/07/20 04:31:30;;;;;;;10.03;9.13;;;15.50;14.50;;;;;;5016655;28;20441;-53
2021/07/20 04:33:56;;;;;;;9.43;8.43;;;15.50;11.40;;;;;;5012571;28;20212;-47
2021/07/20 04:36:23;;;;;;;11.73;8.90;;;15.60;10.80;;;;;;5018652;28;20928;-50
2021/07/20 04:38:49;;;;;;;9.87;8.87;;;15.70;12.50;;;;;;5008141;28;20432;-51
2021/07/20 04:41:17;;;;;;;9.57;8.60;;;15.80;12.90;;;;;;5010608;28;20499;-52
2021/07/20 04:43:44;;;;;;;11.33;9.53;;;15.80;12.80;;;;;;5024921;28;20432;-49
2021/07/20 04:46:11;;;;;;;9.67;8.67;;;15.90;7.10;;;;;;5031773;28;20426;-54
2021/07/20 04:48:38;;;;;;;9.83;8.87;;;15.90;4.90;;;;;;5025600;28;20463;-52
2021/07/20 04:51:03;;;;;;;10.57;9.47;;;16.00;1.00;;;;;;5017657;28;20444;-53
2021/07/20 04:53:29;;;;;;;11.00;9.50;;;16.10;1.00;;;;;;5017783;28;20448;-52
2021/07/20 04:55:55;;;;;;;9.33;8.37;;;16.20;1.00;;;;;;5028847;28;20209;-52
2021/07/20 04:58:21;;;;;;;9.83;8.37;;;16.20;1.00;;;;;;5023552;28;20435;-53
2021/07/20 05:00:51;;;;;;;9.43;8.50;;;16.30;1.00;;;;;;5030272;28;20654;-50
2021/07/20 05:03:22;;;;;;;9.43;8.20;;;16.30;1.00;;;;;;5031600;28;20594;-52
2021/07/20 05:05:48;;;;;;;12.60;9.70;;;16.30;1.00;;;;;;5029271;28;20538;-52
2021/07/20 05:08:16;;;;;;;10.50;9.43;;;16.30;1.00;;;;;;5018886;28;20468;-51
2021/07/20 05:10:50;;;;;;;9.30;8.40;;;16.30;1.00;;;;;;5021492;28;20427;-55
2021/07/20 05:13:20;;;;;;;10.20;8.80;;;16.40;1.00;;;;;;5030957;28;20430;-49
2021/07/20 05:15:49;;;;;;;9.63;8.57;;;16.40;1.00;;;;;;5028473;28;20551;-53
2021/07/20 05:18:15;;;;;;;10.70;9.70;;;16.50;1.00;;;;;;5030966;28;20486;-54
2021/07/20 05:20:43;;;;;;;9.90;8.90;;;16.60;1.00;;;;;;5028209;28;20495;-52
2021/07/20 05:23:12;;;;;;;11.50;9.23;;;16.70;1.00;;;;;;5032689;28;20780;-52
2021/07/20 05:25:39;;;;;;;10.60;8.90;;;16.80;1.00;;;;;;5030253;28;20452;-49
2021/07/20 05:28:05;;;;;;;11.43;10.10;;;16.80;1.00;;;;;;5012942;28;20887;-51
2021/07/20 05:30:31;;;;;;;9.10;8.20;;;16.90;1.00;;;;;;5030438;28;20428;-50
2021/07/20 05:32:57;;;;;;;10.80;9.30;;;16.90;1.00;;;;;;5031133;28;20515;-54
2021/07/20 05:35:22;;;;;;;11.90;10.70;;;16.90;1.00;;;;;;5030489;28;20516;-54
2021/07/20 05:37:49;;;;;;;12.07;10.33;;;17.00;1.00;;;;;;5031374;28;20234;-51
2021/07/20 05:40:17;;;;;;;10.17;9.17;;;17.20;1.00;;;;;;5031143;28;20266;-51
2021/07/20 05:42:45;;;;;;;9.07;8.17;;;17.20;1.00;;;;;;5030160;28;20441;-53
2021/07/20 05:45:12;;;;;;;10.43;9.43;;;17.10;1.00;;;;;;5031466;28;20393;-54
2021/07/20 05:47:43;;;;;;;10.23;8.60;;;17.10;1.00;;;;;;5030905;28;21244;-50
2021/07/20 05:50:09;;;;;;;10.90;9.10;;;17.10;1.00;;;;;;5030287;28;20491;-52
2021/07/20 05:52:39;;;;;;;10.70;9.70;;;17.10;1.00;;;;;;5029514;28;20221;-55
2021/07/20 05:55:07;;;;;;;12.50;11.03;;;17.20;1.00;;;;;;5017866;28;21192;-53
2021/07/20 05:57:34;;;;;;;14.40;11.30;;;17.20;1.00;;;;;;5020149;28;20472;-50
2021/07/20 06:00:01;;;;;;;9.23;8.17;;;17.40;1.00;;;;;;5028894;28;20419;-51
2021/07/20 06:02:27;;;;;;;13.45;9.15;;;17.40;1.00;;;;;;5021383;28;20526;-51
2021/07/20 06:04:54;;;;;;;11.63;9.27;;;17.60;1.00;;;;;;5025928;28;20245;-52
2021/07/20 06:07:19;;;;;;;11.43;8.97;;;17.60;1.00;;;;;;5029453;28;20513;-49
2021/07/20 06:09:46;;;;;;;11.80;10.00;;;17.70;1.00;;;;;;5029529;28;20567;-53
2021/07/20 06:12:16;;;;;;;10.43;9.30;;;17.80;1.00;;;;;;5029619;28;20933;-54
2021/07/20 06:14:42;;;;;;;11.53;10.10;;;17.90;1.00;;;;;;5025535;28;20439;-52
2021/07/20 06:17:08;;;;;;;10.25;9.30;;;18.00;1.00;;;;;;5029660;28;20519;-52
2021/07/20 06:19:36;;;;;;;10.33;9.23;;;18.00;1.00;;;;;;5029615;28;20206;-53
2021/07/20 06:22:07;;;;;;;10.17;9.23;;;18.00;1.00;;;;;;5028863;28;20297;-53
2021/07/20 06:24:36;;;;;;;11.60;9.65;;;18.00;1.00;;;;;;5034932;28;20513;-50
2021/07/20 06:27:02;;;;;;;10.87;9.57;;;18.10;1.00;;;;;;5029565;28;20191;-53
2021/07/20 06:29:31;;;;;;;9.97;9.07;;;18.30;1.00;;;;;;5029324;28;21020;-50
2021/07/20 06:32:01;;;;;;;10.67;9.67;;;18.40;1.00;;;;;;5029554;28;20922;-51
2021/07/20 06:34:27;;;;;;;12.13;10.07;;;18.50;1.00;;;;;;5029503;28;20444;-52
2021/07/20 06:36:54;;;;;;;11.53;10.00;;;18.60;1.00;;;;;;5028953;28;20476;-53
2021/07/20 06:39:20;;;;;;;10.03;9.03;;;18.50;1.00;;;;;;5029454;28;20476;-52
2021/07/20 06:41:49;;;;;;;10.60;9.50;;;18.70;1.00;;;;;;5028989;28;20430;-53
2021/07/20 06:44:15;;;;;;;12.30;10.17;;;18.80;1.00;;;;;;5028146;28;20426;-53
2021/07/20 06:46:41;;;;;;;13.53;9.67;;;18.80;1.00;;;;;;5024509;28;20444;-53
2021/07/20 06:49:07;;;;;;;11.23;9.03;;;19.00;1.00;;;;;;5023712;28;21261;-53
2021/07/20 06:51:32;;;;;;;10.40;9.50;;;19.20;1.00;;;;;;5027070;28;20182;-53
2021/07/20 06:53:58;;;;;;;10.27;9.27;;;19.50;1.00;;;;;;5028293;28;20210;-53
2021/07/20 06:56:36;;;;;;;10.57;9.50;;;19.50;1.00;;;;;;5028069;28;20894;-53
2021/07/20 06:59:03;;;;;;;10.83;9.80;;;19.40;99.90;;;;;;5028035;28;20177;-56
2021/07/20 07:01:31;;;;;;;10.70;9.70;;;19.70;99.90;;;;;;5027879;28;20421;-53
2021/07/20 07:04:15;;;;;;;11.47;10.27;;;19.50;99.90;;;;;;5028495;28;20409;-54
2021/07/20 07:06:44;;;;;;;10.57;9.47;;;19.70;99.90;;;;;;5020863;28;20444;-56
2021/07/20 07:09:11;;;;;;;12.00;9.83;;;19.80;1.00;;;;;;5025342;28;21151;-54
2021/07/20 07:11:39;;;;;;;10.73;9.27;;;20.00;1.00;;;;;;5027096;28;20469;-52
2021/07/20 07:14:05;;;;;;;12.60;9.38;;;20.00;1.00;;;;;;5027246;28;20403;-51
2021/07/20 07:16:32;;;;;;;11.07;10.00;;;20.00;99.90;;;;;;5026030;28;20355;-52
2021/07/20 07:18:58;;;;;;;11.13;10.20;;;20.00;99.90;;;;;;5017681;28;20423;-54
2021/07/20 07:21:26;;;;;;;10.77;9.77;;;20.00;99.90;;;;;;5021074;28;20433;-55
2021/07/20 07:23:53;;;;;;;10.20;9.23;;;20.10;99.90;;;;;;5018357;28;20426;-54
2021/07/20 07:26:21;;;;;;;10.53;9.53;;;20.20;99.90;;;;;;5023846;28;20511;-55
2021/07/20 07:28:49;;;;;;;10.97;10.00;;;20.10;99.90;;;;;;5022428;28;20542;-53
2021/07/20 07:31:15;;;;;;;9.90;8.90;;;20.30;99.90;;;;;;5024978;28;21106;-55
2021/07/20 07:33:42;;;;;;;10.80;9.70;;;20.40;99.90;;;;;;5023044;28;20832;-53
2021/07/20 07:36:09;;;;;;;10.10;9.30;;;20.60;1.00;;;;;;5010408;28;20435;-49
2021/07/20 07:38:37;;;;;;;9.90;8.97;;;20.70;1.00;;;;;;5025350;28;20456;-54
2021/07/20 07:41:03;;;;;;;10.27;9.35;;;21.00;99.90;;;;;;5027703;28;20417;-53
2021/07/20 07:43:30;;;;;;;10.20;9.20;;;21.00;99.90;;;;;;5027210;28;20186;-54
2021/07/20 07:45:57;;;;;;;10.67;9.70;;;20.90;1.00;;;;;;5027088;28;20429;-55
2021/07/20 07:48:25;;;;;;;10.45;9.38;;;20.90;1.00;;;;;;5017485;28;20464;-54
2021/07/20 07:50:53;;;;;;;10.43;9.53;;;21.00;1.00;;;;;;5010552;28;20198;-52
2021/07/20 07:53:19;;;;;;;10.60;9.60;;;21.30;99.90;;;;;;5014547;28;20429;-53
2021/07/20 07:55:44;;;;;;;11.27;9.80;;;21.30;99.90;;;;;;5014019;28;21180;-55
2021/07/20 07:58:16;;;;;;;9.70;8.70;;;21.20;99.90;;;;;;5015280;28;20209;-55
2021/07/20 08:00:42;;;;;;;10.00;9.10;;;21.40;1.00;;;;;;5021186;28;20212;-51
2021/07/20 08:03:08;;;;;;;10.23;9.30;;;21.50;99.90;;;;;;5021219;28;20186;-54
2021/07/20 08:05:34;;;;;;;11.03;10.03;;;21.60;99.90;;;;;;5023717;28;20984;-49
2021/07/20 08:08:00;;;;;;;9.93;9.02;;;21.50;1.00;;;;;;5021278;28;20424;-51
2021/07/20 08:10:28;;;;;;;10.30;9.50;;;21.50;1.00;;;;;;5027781;28;20211;-52
2021/07/20 08:12:58;;;;;;;11.00;10.00;;;21.70;99.90;;;;;;5028235;28;21163;-54
2021/07/20 08:15:24;;;;;;;10.35;9.45;;;21.90;99.90;;;;;;5027071;28;20803;-51
2021/07/20 08:17:51;;;;;;;9.90;8.90;;;21.90;99.90;;;;;;5028040;28;20231;-52
2021/07/20 08:20:18;;;;;;;9.60;8.70;;;22.10;45.30;;;;;;5027354;28;20248;-53
2021/07/20 08:22:46;;;;;;;9.77;8.87;;;22.00;99.90;;;;;;5033053;28;20563;-52
2021/07/20 08:25:18;;;;;;;9.37;8.67;;;22.20;1.00;;;;;;5017988;28;20437;-50
2021/07/20 08:27:46;;;;;;;9.77;8.97;;;22.40;1.00;;;;;;5027757;28;20504;-50
2021/07/20 08:30:13;;;;;;;9.50;8.60;;;22.50;99.90;;;;;;5020147;28;20441;-52
2021/07/20 08:32:51;;;;;;;10.43;9.30;;;22.50;99.90;;;;;;5031578;28;20492;-54
2021/07/20 08:35:24;;;;;;;9.37;8.47;;;22.80;99.90;;;;;;5031419;28;20915;-56
2021/07/20 08:37:51;;;;;;;9.80;8.90;;;23.20;1.00;;;;;;5019556;28;20506;-54
2021/07/20 08:40:28;;;;;;;9.33;8.53;;;23.20;1.00;;;;;;5031020;28;20503;-56
2021/07/20 08:43:12;;;;;;;9.17;8.47;;;23.20;1.00;;;;;;5030543;28;20471;-53
2021/07/20 08:46:06;;;;;;;9.00;7.87;;;23.30;1.00;;;;;;5028053;28;20905;-55
2021/07/20 08:49:12;;;;;;;8.77;8.07;;;23.50;99.90;;;;;;5018010;28;21081;-53
2021/07/20 08:52:08;;;;;;;9.07;8.27;;;23.30;99.90;;;;;;5001239;28;20445;-55
2021/07/20 08:54:45;;;;;;;8.33;7.57;;;23.10;99.90;;;;;;5030838;28;20182;-53
2021/07/20 08:57:17;;;;;;;8.00;7.40;;;23.10;99.90;;;;;;5028441;28;20459;-52
2021/07/20 09:00:07;;;;;;;7.87;7.10;;;23.00;99.90;;;;;;5030888;28;20500;-53
2021/07/20 09:03:05;;;;;;;8.67;7.97;;;23.00;42.50;;;;;;5026847;28;21212;-52
2021/07/20 09:05:43;;;;;;;7.70;7.07;;;22.90;1.00;;;;;;5003762;28;20837;-54
2021/07/20 09:08:29;;;;;;;6.97;6.40;;;22.90;1.00;;;;;;5027860;28;21012;-54
2021/07/20 09:11:11;;;;;;;6.73;5.97;;;23.00;1.00;;;;;;5030153;28;20432;-53
2021/07/20 09:13:40;;;;;;;6.03;5.53;;;22.90;1.00;;;;;;5030294;28;20880;-50
2021/07/20 09:16:13;;;;;;;6.57;6.07;;;23.00;1.00;;;;;;5030894;28;20414;-55
2021/07/20 09:18:47;;;;;;;7.70;6.93;;;23.10;1.00;;;;;;5018516;28;20477;-51
2021/07/20 09:21:14;;;;;;;6.67;6.10;;;23.10;1.00;;;;;;5030710;28;20428;-52
2021/07/20 09:23:48;;;;;;;7.23;6.77;;;23.00;1.00;;;;;;5036007;28;20433;-55
2021/07/20 09:26:19;;;;;;;7.20;6.70;;;23.20;1.00;;;;;;5030338;28;20918;-54
2021/07/20 09:28:55;;;;;;;7.40;6.90;;;23.30;1.00;;;;;;5030569;28;20469;-54
2021/07/20 09:31:37;;;;;;;7.23;6.63;;;23.30;1.00;;;;;;5029638;28;20421;-54
2021/07/20 09:34:25;;;;;;;7.60;7.00;;;23.20;1.00;;;;;;5029700;28;20441;-54
2021/07/20 09:37:22;;;;;;;7.50;6.93;;;23.30;1.00;;;;;;5016147;28;20429;-52
2021/07/20 09:40:29;;;;;;;6.97;6.40;;;23.10;1.00;;;;;;5023182;28;20473;-54
2021/07/20 09:43:12;;;;;;;7.77;7.07;;;23.00;1.00;;;;;;5026834;28;20193;-54
2021/07/20 09:45:45;;;;;;;7.30;6.70;;;23.50;1.00;;;;;;5030171;28;20505;-55
2021/07/20 09:48:24;;;;;;;7.17;6.10;;;23.70;1.00;;;;;;5029383;28;20544;-52
2021/07/20 09:51:21;;;;;;;6.30;5.90;;;23.80;1.00;;;;;;5029876;28;20429;-53
2021/07/20 09:54:14;;;;;;;6.90;6.40;;;24.00;1.00;;;;;;5030166;28;20417;-54
2021/07/20 09:57:07;;;;;;;6.27;5.87;;;24.30;1.00;;;;;;5025545;28;20457;-49
2021/07/20 09:59:51;;;;;;;6.17;5.77;;;24.70;99.90;;;;;;5013443;28;20480;-52
2021/07/20 10:02:43;;;;;;;6.80;6.40;;;24.90;99.90;;;;;;5010536;28;20927;-54
2021/07/20 10:05:27;;;;;;;6.97;6.37;;;25.10;99.90;;;;;;4995943;28;20464;-54
2021/07/20 10:07:58;;;;;;;7.10;6.60;;;25.30;99.90;;;;;;5011808;28;20433;-53
2021/07/20 10:11:02;;;;;;;6.80;6.20;;;25.40;99.90;;;;;;5012921;28;20425;-54
2021/07/20 10:14:08;;;;;;;7.10;6.60;;;26.10;99.90;;;;;;5003938;28;20473;-55
2021/07/20 10:17:03;;;;;;;6.60;6.10;;;27.20;99.90;;;;;;5000347;28;21156;-54
2021/07/20 10:19:42;;;;;;;6.60;6.00;;;28.40;99.90;;;;;;5028933;28;20183;-54
2021/07/20 10:22:11;;;;;;;6.37;5.97;;;28.80;99.90;;;;;;5030339;28;20424;-56
2021/07/20 10:24:43;;;;;;;6.40;6.00;;;28.50;99.90;;;;;;5034338;28;20907;-53
2021/07/20 10:27:15;;;;;;;5.97;5.47;;;29.20;99.90;;;;;;5029006;28;20444;-52
2021/07/20 10:29:46;;;;;;;6.22;5.82;;;29.70;99.90;;;;;;5015595;28;20476;-54
2021/07/20 10:32:18;;;;;;;7.30;6.77;;;30.70;99.90;;;;;;5028671;28;20265;-54
2021/07/20 10:34:54;;;;;;;7.03;6.50;;;30.50;99.90;;;;;;5029464;28;20903;-54
2021/07/20 10:37:26;;;;;;;6.40;6.00;;;31.10;99.90;;;;;;5028423;28;20486;-53
2021/07/20 10:40:15;;;;;;;6.60;6.20;;;31.70;99.90;;;;;;5029023;28;21031;-55
2021/07/20 10:43:08;;;;;;;7.27;6.70;;;31.50;99.90;;;;;;5028966;28;20201;-56
2021/07/20 10:45:36;;;;;;;6.73;6.23;;;30.60;99.90;;;;;;5029206;28;20937;-52
2021/07/20 10:48:07;;;;;;;7.30;6.90;;;29.80;99.90;;;;;;5028279;28;20425;-53
2021/07/20 10:50:42;;;;;;;7.03;6.63;;;29.20;99.90;;;;;;5028536;28;20484;-56
2021/07/20 10:53:31;;;;;;;7.40;6.90;;;28.90;99.90;;;;;;5028346;28;20405;-51
2021/07/20 10:56:02;;;;;;;7.40;6.80;;;28.60;99.90;;;;;;5016414;28;20413;-55
2021/07/20 10:58:48;;;;;;;7.40;6.90;;;28.20;99.90;;;;;;5028118;28;20433;-53
2021/07/20 11:01:17;;;;;;;7.33;6.83;;;27.70;99.90;;;;;;5028765;28;20433;-54
2021/07/20 11:03:57;;;;;;;7.17;6.77;;;27.40;99.90;;;;;;5027432;28;20513;-57
2021/07/20 11:06:23;;;;;;;6.83;6.33;;;26.90;99.90;;;;;;5027238;28;20412;-55
2021/07/20 11:08:54;;;;;;;7.70;7.07;;;26.50;99.90;;;;;;5023309;28;20634;-54
2021/07/20 11:11:32;;;;;;;7.30;6.90;;;25.90;99.90;;;;;;5027857;28;20495;-54
2021/07/20 11:13:59;;;;;;;6.67;6.27;;;25.50;99.90;;;;;;5028576;28;20415;-53
2021/07/20 11:16:26;;;;;;;8.33;7.63;;;25.30;99.90;;;;;;5023971;28;20467;-54
2021/07/20 11:18:52;;;;;;;7.40;6.63;;;24.90;99.90;;;;;;5027878;28;20413;-52
2021/07/20 11:21:23;;;;;;;7.70;7.10;;;24.70;99.90;;;;;;5023992;28;21139;-53
2021/07/20 11:23:50;;;;;;;7.27;6.73;;;24.70;99.90;;;;;;5025617;28;20413;-54
2021/07/20 11:26:17;;;;;;;7.10;6.60;;;25.00;99.90;;;;;;5028173;28;20428;-55
2021/07/20 11:28:44;;;;;;;7.40;6.90;;;25.10;99.90;;;;;;5027261;28;20469;-54
2021/07/20 11:31:13;;;;;;;8.10;7.60;;;25.20;99.90;;;;;;5026021;28;20430;-52
2021/07/20 11:34:13;;;;;;;7.93;7.40;;;25.30;99.90;;;;;;5028009;28;20412;-51
2021/07/20 11:36:41;;;;;;;7.23;6.80;;;25.30;99.90;;;;;;4993725;28;20461;-56
2021/07/20 11:39:12;;;;;;;7.27;6.77;;;25.20;99.90;;;;;;5027449;28;20417;-53
2021/07/20 11:41:59;;;;;;;7.53;7.03;;;25.60;99.90;;;;;;5025631;28;20426;-56
2021/07/20 11:44:43;;;;;;;8.27;7.57;;;26.00;99.90;;;;;;5027006;28;20417;-53
2021/07/20 11:47:32;;;;;;;7.40;6.90;;;26.50;99.90;;;;;;5025612;28;20903;-56
2021/07/20 11:49:58;;;;;;;7.27;6.73;;;26.60;99.90;;;;;;5026076;28;20453;-54
2021/07/20 11:52:39;;;;;;;8.33;7.73;;;26.30;99.90;;;;;;5026515;28;20417;-57
2021/07/20 11:55:28;;;;;;;7.50;6.90;;;26.20;99.90;;;;;;5024135;28;20413;-57
2021/07/20 11:58:18;;;;;;;7.67;7.17;;;26.20;99.90;;;;;;5026142;28;20423;-54
2021/07/20 12:01:23;;;;;;;8.33;7.50;;;26.00;99.90;;;;;;5025048;28;20523;-54
2021/07/20 12:04:11;;;;;;;8.03;7.53;;;25.50;99.90;;;;;;5023806;28;20425;-53
2021/07/20 12:07:22;;;;;;;8.07;7.43;;;25.40;99.90;;;;;;5029884;28;20526;-54
2021/07/20 12:10:06;;;;;;;8.60;8.00;;;25.20;99.90;;;;;;4969330;28;21011;-52
2021/07/20 12:12:54;;;;;;;8.73;8.10;;;25.00;99.90;;;;;;4969436;28;20180;-54
2021/07/20 12:15:22;;;;;;;8.73;8.13;;;24.70;99.90;;;;;;5015781;28;20499;-55
2021/07/20 12:17:49;;;;;;;9.10;8.37;;;24.50;99.90;;;;;;5029777;28;20459;-56
2021/07/20 12:20:17;;;;;;;9.85;9.02;;;24.20;99.90;;;;;;5029987;28;20540;-53
2021/07/20 12:22:49;;;;;;;10.10;9.30;;;24.10;99.90;;;;;;5029843;28;20178;-56
2021/07/20 12:25:15;;;;;;;8.90;8.30;;;24.00;99.90;;;;;;5030970;28;20425;-53
2021/07/20 12:27:41;;;;;;;8.85;8.23;;;23.90;99.90;;;;;;5031061;28;20412;-56
2021/07/20 12:30:12;;;;;;;9.03;8.33;;;23.80;99.90;;;;;;5030539;28;20229;-52
2021/07/20 12:32:40;;;;;;;8.70;8.03;;;24.00;99.90;;;;;;5030982;28;20909;-52
2021/07/20 12:35:06;;;;;;;9.98;9.27;;;24.10;99.90;;;;;;5031069;28;20419;-52
2021/07/20 12:37:32;;;;;;;9.33;8.57;;;24.20;99.90;;;;;;5030858;28;20634;-55
2021/07/20 12:39:59;;;;;;;9.17;8.43;;;24.50;99.90;;;;;;5030818;28;20440;-55
2021/07/20 12:42:33;;;;;;;8.47;7.87;;;24.70;99.90;;;;;;5031020;28;20221;-55
2021/07/20 12:45:08;;;;;;;8.80;7.93;;;25.10;99.90;;;;;;5030678;28;20420;-57
2021/07/20 12:47:42;;;;;;;8.50;7.90;;;25.80;99.90;;;;;;5023862;28;20451;-53
2021/07/20 12:50:10;;;;;;;9.03;8.33;;;26.70;99.90;;;;;;5026516;28;20467;-53
2021/07/20 12:52:49;;;;;;;8.83;8.23;;;27.80;99.90;;;;;;5023176;28;20422;-55
2021/07/20 12:55:16;;;;;;;8.90;8.20;;;29.20;99.90;;;;;;5025283;28;20429;-54
2021/07/20 12:57:56;;;;;;;8.77;8.17;;;30.00;99.90;;;;;;5024785;28;20521;-52
2021/07/20 13:00:27;;;;;;;8.87;8.30;;;30.60;99.90;;;;;;5027551;28;20421;-56
2021/07/20 13:02:56;;;;;;;9.75;9.05;;;30.80;99.90;;;;;;5030578;28;20508;-55
2021/07/20 13:05:24;;;;;;;9.45;8.85;;;31.00;99.90;;;;;;5023144;28;20180;-56